Time;durP1;ratioP1;P1;durP2;ratioP2;P2;SDS_P1;SDS_P2;PMS_P1;PMS_P2;Temp;Humidity;BMP_temperature;BMP_pressure;BME280_temperature;BME280_humidity;BME280_pressure;Samples;Min_cycle;Max_cycle;Signal;HPM_P1;HPM_P2
2022/01/30 00:00:57;;;;;;;0.60;0.60;;;;;;;7.16;75.35;98331.20;103543;1277;138904;-65
2022/01/30 00:03:24;;;;;;;0.60;0.60;;;;;;;7.16;75.51;98319.41;103395;1276;99382;-65
2022/01/30 00:05:54;;;;;;;0.60;0.60;;;;;;;7.17;75.68;98321.31;103496;1277;108231;-66
2022/01/30 00:08:21;;;;;;;0.60;0.60;;;;;;;7.17;75.92;98319.00;103371;1277;139819;-66
2022/01/30 00:10:56;;;;;;;0.60;0.60;;;;;;;7.20;75.80;98313.73;103540;1277;95207;-65
2022/01/30 00:13:26;;;;;;;0.60;0.60;;;;;;;7.21;75.70;98325.91;103562;1275;139861;-64
2022/01/30 00:15:55;;;;;;;0.60;0.60;;;;;;;7.18;76.24;98318.39;103637;1277;99341;-65
2022/01/30 00:21:16;;;;;;;0.60;0.60;;;;;;;7.11;76.88;98348.00;103572;1274;138747;-66
2022/01/30 00:23:52;;;;;;;0.60;0.60;;;;;;;7.01;75.70;98369.13;103646;1274;96037;-65
2022/01/30 00:26:27;;;;;;;0.60;0.60;;;;;;;6.94;75.09;98363.10;103557;1274;140233;-65
2022/01/30 00:28:55;;;;;;;0.60;0.60;;;;;;;6.90;74.65;98364.66;103695;1274;99511;-65
2022/01/30 00:31:25;;;;;;;0.60;0.60;;;;;;;6.80;74.25;98362.08;103558;1274;139517;-64
2022/01/30 00:34:13;;;;;;;0.70;0.70;;;;;;;6.76;72.53;98360.33;103597;1274;95385;-65
2022/01/30 00:36:41;;;;;;;0.60;0.60;;;;;;;6.74;72.41;98375.77;103601;1277;95741;-65
2022/01/30 00:39:08;;;;;;;0.60;0.60;;;;;;;6.73;72.21;98383.60;103562;1277;138196;-65
2022/01/30 00:41:36;;;;;;;0.60;0.60;;;;;;;6.68;71.78;98379.72;103691;1274;97611;-66
2022/01/30 00:44:04;;;;;;;0.70;0.70;;;;;;;6.66;71.62;98385.83;103507;1274;137995;-64
2022/01/30 00:46:32;;;;;;;0.70;0.70;;;;;;;6.63;70.31;98385.96;103709;1274;95854;-67
2022/01/30 00:49:00;;;;;;;0.60;0.60;;;;;;;6.59;69.71;98387.34;103519;1274;138163;-67
2022/01/30 00:51:28;;;;;;;0.70;0.70;;;;;;;6.57;69.94;98379.15;103597;1276;111433;-64
2022/01/30 00:53:56;;;;;;;0.70;0.70;;;;;;;6.50;69.98;98384.36;103671;1277;98896;-64
2022/01/30 00:56:24;;;;;;;0.60;0.60;;;;;;;6.45;70.15;98384.23;103380;1277;139266;-65
2022/01/30 00:58:51;;;;;;;0.70;0.70;;;;;;;6.47;70.33;98396.66;103462;1277;95250;-65
2022/01/30 01:01:19;;;;;;;0.70;0.70;;;;;;;6.47;70.60;98408.65;103467;1277;138382;-66
2022/01/30 01:03:48;;;;;;;0.70;0.70;;;;;;;6.40;70.68;98404.89;103559;1277;109672;-64
2022/01/30 01:06:16;;;;;;;0.70;0.70;;;;;;;6.36;70.28;98397.64;103615;1277;99549;-65
2022/01/30 01:08:57;;;;;;;0.60;0.60;;;;;;;6.34;69.50;98407.05;103452;1277;138641;-64
2022/01/30 01:25:21;;;;;;;0.80;0.80;;;;;;;5.99;68.66;98402.98;103524;1274;139466;-66
2022/01/30 01:27:49;;;;;;;0.80;0.80;;;;;;;6.00;68.95;98400.51;103602;1274;95658;-66
2022/01/30 01:30:17;;;;;;;0.70;0.70;;;;;;;5.96;68.12;98390.09;103662;1274;109654;-65
2022/01/30 01:32:46;;;;;;;0.90;0.90;;;;;;;5.95;68.18;98397.69;103919;1277;140159;-65
2022/01/30 01:35:14;;;;;;;0.70;0.70;;;;;;;5.89;66.77;98395.63;103688;1274;109062;-64
2022/01/30 01:37:41;;;;;;;0.90;0.90;;;;;;;5.86;66.65;98392.76;103437;1277;138061;-66
2022/01/30 01:40:10;;;;;;;0.90;0.90;;;;;;;5.78;66.21;98388.82;103643;1274;96108;-66
2022/01/30 01:42:38;;;;;;;0.70;0.70;;;;;;;5.79;66.39;98395.16;103621;1274;110496;-64
2022/01/30 01:45:07;;;;;;;0.70;0.70;;;;;;;5.78;66.24;98397.98;103617;1274;138787;-64
2022/01/30 01:47:35;;;;;;;0.70;0.70;;;;;;;5.79;66.18;98399.36;103749;1274;109309;-64
2022/01/30 01:50:03;;;;;;;0.80;0.80;;;;;;;5.79;66.35;98396.19;103531;1277;138450;-66
2022/01/30 01:52:31;;;;;;;0.80;0.80;;;;;;;5.78;66.20;98393.92;103870;1277;95185;-63
2022/01/30 01:55:00;;;;;;;0.90;0.90;;;;;;;5.80;65.90;98373.59;103347;1277;138979;-64
2022/01/30 01:57:29;;;;;;;0.80;0.80;;;;;;;5.79;65.60;98384.20;103454;1277;99386;-64
2022/01/30 02:00:27;;;;;;;0.80;0.80;;;;;;;5.79;65.75;98379.30;103216;1278;108924;-66
2022/01/30 02:02:56;;;;;;;1.00;1.00;;;;;;;5.74;65.40;98381.06;103581;1274;137658;-65
2022/01/30 02:05:27;;;;;;;0.80;0.80;;;;;;;5.75;65.70;98385.42;103582;1277;95622;-63
2022/01/30 02:27:40;;;;;;;0.80;0.80;;;;;;;5.65;67.44;98350.59;103960;1277;108798;-66
2022/01/30 02:30:09;;;;;;;0.70;0.70;;;;;;;5.70;68.11;98350.42;103496;1277;95484;-65
2022/01/30 02:32:38;;;;;;;0.70;0.70;;;;;;;5.72;67.53;98347.70;103732;1277;138370;-66
2022/01/30 02:35:06;;;;;;;0.80;0.80;;;;;;;5.67;67.13;98340.85;103665;1276;110573;-64
2022/01/30 02:37:34;;;;;;;0.80;0.80;;;;;;;5.65;67.16;98340.90;103332;1277;138421;-64
2022/01/30 02:40:07;;;;;;;0.70;0.70;;;;;;;5.68;66.83;98337.82;103809;1277;108770;-64
2022/01/30 02:42:38;;;;;;;0.70;0.70;;;;;;;5.67;66.82;98323.61;103850;1275;97161;-64
2022/01/30 02:45:10;;;;;;;0.80;0.80;;;;;;;5.69;67.13;98322.27;103455;1277;137741;-66
2022/01/30 02:47:52;;;;;;;0.80;0.80;;;;;;;5.67;66.68;98331.86;103583;1277;109628;-64
2022/01/30 02:50:34;;;;;;;0.70;0.70;;;;;;;5.68;66.59;98333.58;103605;1274;139048;-64
2022/01/30 02:53:05;;;;;;;0.70;0.70;;;;;;;5.68;66.19;98320.71;103580;1277;108783;-66
2022/01/30 02:55:33;;;;;;;0.70;0.70;;;;;;;5.63;65.72;98318.29;103465;1277;139724;-63
2022/01/30 02:58:02;;;;;;;0.80;0.80;;;;;;;5.56;65.95;98334.08;103620;1277;95614;-64
2022/01/30 03:00:31;;;;;;;0.80;0.80;;;;;;;5.50;66.90;98345.19;103670;1277;109845;-66
2022/01/30 03:02:59;;;;;;;0.80;0.80;;;;;;;5.49;67.71;98324.98;104195;1276;140250;-64
2022/01/30 03:05:28;;;;;;;0.70;0.70;;;;;;;5.40;67.82;98332.72;103662;1277;108911;-66
2022/01/30 03:07:56;;;;;;;0.80;0.80;;;;;;;5.33;68.36;98337.05;103413;1277;139509;-65
2022/01/30 03:10:24;;;;;;;0.80;0.80;;;;;;;5.25;69.45;98345.81;103556;1277;96609;-66
2022/01/30 03:12:51;;;;;;;0.80;0.80;;;;;;;5.11;70.44;98356.52;103386;1275;139905;-64
2022/01/30 03:15:20;;;;;;;0.80;0.80;;;;;;;4.98;71.07;98362.79;107576;1276;99623;-65
2022/01/30 03:17:47;;;;;;;0.70;0.70;;;;;;;4.97;71.65;98359.13;106177;1277;108764;-64
2022/01/30 03:20:15;;;;;;;0.90;0.90;;;;;;;4.93;71.92;98371.06;103417;1278;139317;-66
2022/01/30 03:22:43;;;;;;;0.80;0.80;;;;;;;4.87;72.26;98389.23;103552;1277;97323;-64
2022/01/30 03:25:11;;;;;;;0.80;0.80;;;;;;;4.81;72.12;98363.06;103402;1277;140287;-66
2022/01/30 03:28:05;;;;;;;0.70;0.70;;;;;;;4.68;71.69;98392.70;103542;1277;99477;-65
2022/01/30 03:30:37;;;;;;;0.80;0.80;;;;;;;4.46;72.12;98369.54;103609;1277;108836;-66
2022/01/30 03:33:11;;;;;;;1.00;1.00;;;;;;;4.28;72.31;98326.94;103663;1277;138263;-65
2022/01/30 03:35:40;;;;;;;0.80;0.80;;;;;;;4.24;72.24;98317.59;103607;1275;96233;-65
2022/01/30 03:38:08;;;;;;;0.80;0.80;;;;;;;4.21;72.36;98305.21;103538;1277;138357;-64
2022/01/30 03:40:36;;;;;;;0.90;0.90;;;;;;;4.26;72.45;98300.33;103594;1277;99450;-65
2022/01/30 03:43:04;;;;;;;0.80;0.80;;;;;;;4.28;72.41;98292.53;103416;1277;139245;-66
2022/01/30 03:45:32;;;;;;;0.90;0.90;;;;;;;4.26;72.42;98293.64;103493;1277;95307;-65
2022/01/30 03:48:02;;;;;;;0.90;0.90;;;;;;;4.32;72.43;98294.31;103560;1277;95619;-66
2022/01/30 03:51:08;;;;;;;1.00;1.00;;;;;;;4.41;72.01;98283.81;103042;1284;138945;-66
2022/01/30 03:53:36;;;;;;;0.90;0.90;;;;;;;4.46;71.85;98282.03;103183;1284;98833;-64
2022/01/30 03:56:05;;;;;;;0.90;0.90;;;;;;;4.44;72.08;98277.19;103177;1277;139139;-66
2022/01/30 03:58:33;;;;;;;0.80;0.80;;;;;;;4.43;72.31;98271.06;103561;1277;96019;-63
2022/01/30 04:01:07;;;;;;;0.90;0.90;;;;;;;4.45;72.32;98266.28;103930;1278;138522;-66
2022/01/30 04:03:36;;;;;;;0.80;0.80;;;;;;;4.51;72.39;98262.02;103653;1277;110269;-64
2022/01/30 04:06:06;;;;;;;0.80;0.80;;;;;;;4.56;72.65;98260.08;103789;1274;99364;-62
2022/01/30 04:08:34;;;;;;;0.90;0.90;;;;;;;4.58;72.48;98249.64;103595;1277;139290;-64
2022/01/30 04:11:04;;;;;;;0.80;0.80;;;;;;;4.64;71.99;98242.20;103633;1274;95246;-65
2022/01/30 04:13:41;;;;;;;0.80;0.80;;;;;;;4.68;71.88;98234.33;103467;1277;138006;-66
2022/01/30 04:16:30;;;;;;;0.90;0.90;;;;;;;4.67;71.71;98238.73;103650;1275;109704;-66
2022/01/30 04:19:17;;;;;;;0.80;0.80;;;;;;;4.70;71.28;98243.02;103546;1274;138224;-65
2022/01/30 04:22:11;;;;;;;0.80;0.80;;;;;;;4.73;70.63;98230.30;104269;1274;108786;-65
2022/01/30 04:24:39;;;;;;;0.80;0.80;;;;;;;4.73;70.36;98221.31;103614;1274;95433;-64
2022/01/30 04:27:20;;;;;;;0.80;0.80;;;;;;;4.73;70.48;98221.84;103744;1274;137946;-63
2022/01/30 04:29:48;;;;;;;0.80;0.80;;;;;;;4.73;69.61;98221.86;103725;1275;109259;-64
2022/01/30 04:32:34;;;;;;;0.70;0.70;;;;;;;4.79;69.75;98222.69;103496;1277;139306;-66
2022/01/30 04:35:25;;;;;;;0.80;0.80;;;;;;;4.83;69.56;98214.06;103609;1274;108953;-63
2022/01/30 04:41:24;;;;;;;0.80;0.80;;;;;;;4.87;69.54;98198.48;103483;1277;95237;-66
2022/01/30 05:02:56;;;;;;;0.90;0.90;;;;;;;4.96;66.95;98156.25;103398;1275;139342;-66
2022/01/30 05:08:31;;;;;;;0.80;0.80;;;;;;;5.02;66.75;98137.89;103533;1274;138778;-63
2022/01/30 05:11:08;;;;;;;0.90;0.90;;;;;;;5.02;66.49;98134.73;103608;1274;95860;-65
2022/01/30 05:13:57;;;;;;;0.90;0.90;;;;;;;4.98;65.75;98129.24;103530;1274;140609;-66
2022/01/30 05:16:48;;;;;;;1.00;1.00;;;;;;;4.99;65.40;98128.53;103593;1274;99361;-64
2022/01/30 05:19:27;;;;;;;0.90;0.90;;;;;;;4.95;64.87;98120.23;103537;1277;138455;-66
2022/01/30 05:22:09;;;;;;;0.80;0.80;;;;;;;4.95;65.58;98122.70;103673;1274;95194;-65
2022/01/30 05:24:57;;;;;;;0.80;0.80;;;;;;;4.92;65.47;98123.88;103637;1274;95223;-65
2022/01/30 05:27:31;;;;;;;0.90;0.90;;;;;;;4.81;66.05;98132.20;103708;1276;138437;-64
2022/01/30 05:30:19;;;;;;;0.80;0.80;;;;;;;4.74;67.69;98145.86;103529;1277;99448;-64
2022/01/30 05:33:02;;;;;;;0.80;0.80;;;;;;;4.68;68.41;98144.84;103404;1277;140141;-65
2022/01/30 05:35:45;;;;;;;0.80;0.80;;;;;;;4.63;68.67;98137.16;103642;1275;95644;-63
2022/01/30 05:38:40;;;;;;;0.80;0.80;;;;;;;4.62;68.26;98135.95;103297;1277;138451;-61
2022/01/30 05:41:27;;;;;;;0.90;0.90;;;;;;;4.63;66.98;98132.20;103787;1274;110041;-64
2022/01/30 05:44:22;;;;;;;0.80;0.80;;;;;;;4.65;66.76;98124.58;103588;1274;138523;-64
2022/01/30 05:47:15;;;;;;;0.80;0.80;;;;;;;4.66;66.19;98134.06;103625;1274;108889;-64
2022/01/30 05:49:52;;;;;;;0.90;0.90;;;;;;;4.67;66.01;98130.45;103411;1277;138362;-65
2022/01/30 05:52:37;;;;;;;0.80;0.80;;;;;;;4.72;66.00;98127.15;103640;1274;95255;-65
2022/01/30 05:55:12;;;;;;;0.80;0.80;;;;;;;4.74;65.91;98135.30;103447;1277;137772;-65
2022/01/30 05:57:40;;;;;;;0.90;0.90;;;;;;;4.74;66.02;98131.79;103614;1275;99441;-65
2022/01/30 06:00:13;;;;;;;0.90;0.90;;;;;;;4.73;65.62;98130.61;103522;1274;108444;-66
2022/01/30 06:02:49;;;;;;;0.90;0.90;;;;;;;4.77;65.96;98133.96;103625;1274;139807;-65
2022/01/30 06:05:20;;;;;;;0.80;0.80;;;;;;;4.79;65.24;98130.40;103695;1277;95217;-65
2022/01/30 06:07:53;;;;;;;0.80;0.80;;;;;;;4.78;65.24;98114.94;103473;1277;139609;-66
2022/01/30 06:10:24;;;;;;;0.80;0.80;;;;;;;4.79;65.39;98121.58;103663;1276;99392;-63
2022/01/30 06:12:53;;;;;;;0.90;0.90;;;;;;;4.77;64.84;98135.20;103755;1277;108815;-63
2022/01/30 06:15:21;;;;;;;0.90;0.90;;;;;;;4.77;64.60;98134.49;103768;1274;140078;-64
2022/01/30 06:17:52;;;;;;;0.80;0.80;;;;;;;4.78;64.57;98131.12;103696;1274;95489;-64
2022/01/30 06:20:39;;;;;;;0.80;0.80;;;;;;;4.78;64.85;98131.82;103523;1277;139273;-63
2022/01/30 06:23:26;;;;;;;0.90;0.90;;;;;;;4.78;65.00;98135.88;103695;1274;99138;-66
2022/01/30 06:26:12;;;;;;;0.90;0.90;;;;;;;4.79;65.31;98124.23;103614;1277;138508;-66
2022/01/30 06:28:59;;;;;;;0.80;0.80;;;;;;;4.78;65.50;98133.05;103665;1274;95261;-65
2022/01/30 06:31:45;;;;;;;0.80;0.80;;;;;;;4.78;65.98;98142.36;103535;1274;137729;-65
2022/01/30 06:34:32;;;;;;;0.90;0.90;;;;;;;4.75;66.02;98138.79;103611;1275;109815;-64
2022/01/30 06:37:30;;;;;;;0.90;0.90;;;;;;;4.73;65.84;98150.11;103419;1277;138192;-63
2022/01/30 06:40:06;;;;;;;0.80;0.80;;;;;;;4.71;65.59;98150.90;103619;1277;108029;-65
2022/01/30 06:43:04;;;;;;;0.90;0.90;;;;;;;4.66;65.50;98150.40;103158;1277;95906;-63
2022/01/30 06:46:11;;;;;;;0.90;0.90;;;;;;;4.60;65.55;98146.22;103289;1277;96069;-65
2022/01/30 06:48:57;;;;;;;0.90;0.90;;;;;;;4.60;65.90;98146.73;103739;1274;110426;-64
2022/01/30 06:51:44;;;;;;;0.90;0.90;;;;;;;4.62;65.81;98138.41;103623;1274;139151;-66
2022/01/30 06:54:35;;;;;;;0.90;0.90;;;;;;;4.61;65.60;98134.59;103559;1274;107919;-64
2022/01/30 06:57:21;;;;;;;1.00;1.00;;;;;;;4.59;66.24;98138.16;103603;1274;137765;-65
2022/01/30 07:00:08;;;;;;;0.90;0.90;;;;;;;4.62;65.78;98129.96;103727;1274;95153;-65
2022/01/30 07:02:54;;;;;;;0.90;0.90;;;;;;;4.62;65.74;98133.30;103503;1274;139940;-64
2022/01/30 07:05:43;;;;;;;0.90;0.90;;;;;;;4.64;65.81;98140.10;103560;1276;98406;-66
2022/01/30 07:08:15;;;;;;;0.90;0.90;;;;;;;4.70;65.98;98125.29;103678;1274;139295;-67
2022/01/30 07:10:44;;;;;;;0.90;0.90;;;;;;;4.75;65.71;98127.02;103516;1277;95756;-65
2022/01/30 07:13:12;;;;;;;0.90;0.90;;;;;;;4.73;65.37;98113.74;103709;1274;96029;-65
2022/01/30 07:15:43;;;;;;;0.80;0.80;;;;;;;4.71;65.37;98109.43;103529;1275;139292;-63
2022/01/30 07:18:11;;;;;;;1.00;1.00;;;;;;;4.68;65.57;98097.92;103577;1277;99491;-67
2022/01/30 07:20:39;;;;;;;0.90;0.90;;;;;;;4.68;66.03;98095.11;103468;1277;139964;-65
2022/01/30 07:23:07;;;;;;;0.90;0.90;;;;;;;4.69;65.93;98091.22;103557;1277;95213;-66
2022/01/30 07:25:34;;;;;;;0.90;0.90;;;;;;;4.67;66.26;98093.38;103400;1277;138174;-66
2022/01/30 07:28:02;;;;;;;0.90;0.90;;;;;;;4.65;67.05;98086.98;103701;1274;109935;-64
2022/01/30 07:30:30;;;;;;;0.90;0.90;;;;;;;4.63;68.38;98093.04;103706;1274;99223;-65
2022/01/30 07:32:58;;;;;;;0.90;0.90;;;;;;;4.58;69.30;98093.05;103581;1274;141959;-66
2022/01/30 07:35:26;;;;;;;1.10;1.10;;;;;;;4.62;69.88;98095.90;103622;1274;95144;-63
2022/01/30 07:37:54;;;;;;;0.90;0.90;;;;;;;4.61;70.04;98102.78;103523;1274;138076;-64
2022/01/30 07:40:21;;;;;;;0.90;0.90;;;;;;;4.51;70.46;98114.06;103650;1277;109841;-66
2022/01/30 07:42:49;;;;;;;1.00;1.00;;;;;;;4.37;70.82;98126.34;103483;1276;98887;-64
2022/01/30 07:45:17;;;;;;;0.90;0.90;;;;;;;4.21;71.04;98115.71;103537;1274;140888;-67
2022/01/30 07:47:45;;;;;;;1.10;1.10;;;;;;;4.12;71.07;98112.69;103625;1274;95186;-64
2022/01/30 07:50:13;;;;;;;0.90;0.90;;;;;;;3.96;71.11;98110.13;103548;1274;137801;-65
2022/01/30 07:52:41;;;;;;;1.00;1.00;;;;;;;3.80;71.29;98102.27;103662;1274;110231;-64
2022/01/30 07:55:09;;;;;;;1.00;1.00;;;;;;;3.77;71.71;98109.05;103702;1274;99490;-64
2022/01/30 07:57:37;;;;;;;1.10;1.10;;;;;;;3.71;71.97;98106.27;103559;1274;138179;-64
2022/01/30 08:00:06;;;;;;;1.10;1.10;;;;;;;3.67;72.18;98107.66;103606;1274;96714;-65
2022/01/30 08:02:40;;;;;;;1.00;1.00;;;;;;;3.61;72.71;98110.16;104088;1277;137894;-64
2022/01/30 08:05:08;;;;;;;1.10;1.10;;;;;;;3.55;72.95;98106.67;103719;1274;109707;-65
2022/01/30 08:07:36;;;;;;;1.00;1.00;;;;;;;3.49;73.02;98102.48;104044;1274;138457;-64
2022/01/30 08:10:05;;;;;;;0.90;0.90;;;;;;;3.50;73.36;98102.08;103586;1277;108848;-65
2022/01/30 08:12:33;;;;;;;1.00;1.00;;;;;;;3.52;73.41;98100.64;103791;1274;95602;-65
2022/01/30 08:15:00;;;;;;;1.10;1.10;;;;;;;3.50;73.55;98108.77;103519;1274;137991;-66
2022/01/30 08:17:31;;;;;;;1.10;1.10;;;;;;;3.45;73.42;98121.05;103637;1274;109722;-65
2022/01/30 08:19:59;;;;;;;1.00;1.00;;;;;;;3.42;73.53;98121.50;103511;1274;138264;-64
2022/01/30 08:22:30;;;;;;;1.00;1.00;;;;;;;3.44;73.64;98121.59;103692;1274;108897;-66
2022/01/30 08:24:58;;;;;;;1.20;1.20;;;;;;;3.43;73.80;98119.70;103747;1274;95591;-64
2022/01/30 08:27:25;;;;;;;1.10;1.10;;;;;;;3.38;73.88;98124.62;103587;1274;138323;-64
2022/01/30 08:29:53;;;;;;;1.10;1.10;;;;;;;3.38;73.94;98138.46;103673;1274;109108;-64
2022/01/30 08:32:21;;;;;;;1.00;1.00;;;;;;;3.38;73.54;98121.29;103497;1274;140209;-65
2022/01/30 08:34:49;;;;;;;1.10;1.10;;;;;;;3.31;73.87;98108.70;103648;1274;108809;-64
2022/01/30 08:37:17;;;;;;;1.10;1.10;;;;;;;3.29;73.66;98118.61;103702;1274;95735;-64
2022/01/30 08:39:44;;;;;;;1.10;1.10;;;;;;;3.28;73.91;98141.62;103575;1274;138156;-64
2022/01/30 08:42:12;;;;;;;1.10;1.10;;;;;;;3.30;73.90;98148.55;103579;1277;109427;-66
2022/01/30 08:44:40;;;;;;;1.10;1.10;;;;;;;3.21;73.75;98173.04;103698;1274;137899;-66
2022/01/30 08:47:08;;;;;;;1.00;1.00;;;;;;;3.07;73.59;98176.83;103677;1274;108810;-67
2022/01/30 08:49:36;;;;;;;1.00;1.00;;;;;;;2.95;73.75;98145.65;103559;1274;139410;-67
2022/01/30 08:52:04;;;;;;;1.00;1.00;;;;;;;2.91;73.77;98158.77;103616;1277;96499;-65
2022/01/30 08:54:32;;;;;;;1.10;1.10;;;;;;;2.90;74.12;98156.33;103695;1274;109664;-66
2022/01/30 08:56:59;;;;;;;1.10;1.10;;;;;;;2.86;74.43;98161.17;103517;1274;138112;-64
2022/01/30 08:59:28;;;;;;;1.10;1.10;;;;;;;2.93;74.39;98160.62;103590;1274;109201;-63
2022/01/30 09:01:55;;;;;;;1.00;1.00;;;;;;;3.03;74.57;98149.61;103332;1274;138690;-65
2022/01/30 09:04:24;;;;;;;1.00;1.00;;;;;;;3.12;74.26;98160.71;103587;1274;95630;-65
2022/01/30 09:06:51;;;;;;;1.00;1.00;;;;;;;3.19;74.40;98162.58;103509;1274;109131;-67
2022/01/30 09:09:19;;;;;;;1.00;1.00;;;;;;;3.26;74.03;98162.18;103366;1277;140158;-67
2022/01/30 09:11:48;;;;;;;1.00;1.00;;;;;;;3.38;74.10;98160.76;103244;1277;109106;-67
2022/01/30 09:14:16;;;;;;;0.90;0.90;;;;;;;3.50;73.78;98151.73;103719;1276;138495;-68
2022/01/30 09:16:47;;;;;;;1.00;1.00;;;;;;;3.54;73.78;98150.39;103545;1277;95639;-65
2022/01/30 09:19:34;;;;;;;1.00;1.00;;;;;;;3.60;73.79;98147.55;103317;1277;137975;-66
2022/01/30 09:22:03;;;;;;;1.10;1.10;;;;;;;3.67;73.66;98140.64;103513;1274;98646;-65
2022/01/30 09:24:31;;;;;;;0.90;0.90;;;;;;;3.80;73.80;98138.08;103548;1274;108711;-66
2022/01/30 09:26:59;;;;;;;0.90;0.90;;;;;;;3.88;73.52;98135.33;103568;1274;138209;-65
2022/01/30 09:29:28;;;;;;;1.00;1.00;;;;;;;3.95;73.60;98131.56;104001;1274;95233;-65
2022/01/30 09:32:00;;;;;;;1.00;1.00;;;;;;;4.11;73.70;98129.77;103498;1274;139269;-65
2022/01/30 09:34:28;;;;;;;0.90;0.90;;;;;;;4.24;73.34;98141.23;103567;1277;98469;-67
2022/01/30 09:36:58;;;;;;;0.80;0.80;;;;;;;4.23;72.76;98141.62;103951;1276;108944;-66
2022/01/30 09:39:26;;;;;;;0.90;0.90;;;;;;;4.18;73.09;98147.95;103362;1274;164972;-65
2022/01/30 09:41:55;;;;;;;0.90;0.90;;;;;;;4.16;72.96;98143.10;104171;1274;95230;-66
2022/01/30 09:44:23;;;;;;;0.90;0.90;;;;;;;4.23;73.21;98150.94;103898;1277;139394;-68
2022/01/30 09:46:51;;;;;;;0.80;0.80;;;;;;;4.26;73.15;98150.83;104084;1274;99463;-66
2022/01/30 09:49:26;;;;;;;0.90;0.90;;;;;;;4.28;73.48;98141.63;104158;1274;107773;-65
2022/01/30 09:51:54;;;;;;;0.90;0.90;;;;;;;4.33;73.57;98134.04;103618;1274;137839;-66
2022/01/30 09:54:22;;;;;;;0.80;0.80;;;;;;;4.38;73.51;98145.45;103628;1274;95188;-65
2022/01/30 09:56:55;;;;;;;0.80;0.80;;;;;;;4.42;73.42;98140.23;103978;1274;138713;-65
2022/01/30 09:59:22;;;;;;;0.90;0.90;;;;;;;4.38;73.40;98138.27;103640;1274;99812;-65
2022/01/30 10:01:50;;;;;;;0.90;0.90;;;;;;;4.38;73.23;98133.00;103506;1274;138316;-66
2022/01/30 10:04:18;;;;;;;0.80;0.80;;;;;;;4.38;73.15;98130.34;103518;1274;95764;-64
2022/01/30 10:07:01;;;;;;;0.80;0.80;;;;;;;4.42;73.59;98135.99;103557;1274;96166;-64
2022/01/30 10:09:32;;;;;;;0.90;0.90;;;;;;;4.41;73.45;98137.45;103951;1274;137532;-64
2022/01/30 10:15:03;;;;;;;0.80;0.80;;;;;;;4.47;73.32;98132.29;104186;1274;141860;-67
2022/01/30 10:17:35;;;;;;;0.80;0.80;;;;;;;4.52;73.61;98128.95;103442;1274;95908;-65
2022/01/30 10:20:25;;;;;;;0.80;0.80;;;;;;;4.54;73.63;98118.13;103296;1274;137732;-64
2022/01/30 10:23:03;;;;;;;0.80;0.80;;;;;;;4.61;73.27;98110.35;104891;1274;108510;-67
2022/01/30 10:25:35;;;;;;;0.80;0.80;;;;;;;4.61;73.57;98117.37;103534;1274;99568;-67
2022/01/30 10:28:12;;;;;;;0.90;0.90;;;;;;;4.57;73.17;98116.45;105137;1274;138157;-66
2022/01/30 10:30:49;;;;;;;0.80;0.80;;;;;;;4.56;73.62;98121.44;103597;1274;95831;-66
2022/01/30 10:33:23;;;;;;;0.90;0.90;;;;;;;4.59;73.71;98123.07;103678;1274;139228;-66
2022/01/30 10:35:58;;;;;;;0.80;0.80;;;;;;;4.61;73.88;98126.31;103475;1274;109703;-67
2022/01/30 10:42:06;;;;;;;0.80;0.80;;;;;;;4.51;73.73;98123.54;103559;1284;109289;-75
2022/01/30 10:44:54;;;;;;;0.80;0.80;;;;;;;4.48;73.72;98126.84;103390;1285;140377;-80
2022/01/30 10:47:22;;;;;;;0.80;0.80;;;;;;;4.51;73.99;98121.63;103445;1287;95243;-77
2022/01/30 10:49:49;;;;;;;0.80;0.80;;;;;;;4.52;73.78;98126.31;103436;1284;140671;-73
2022/01/30 10:52:19;;;;;;;0.90;0.90;;;;;;;4.54;74.27;98125.92;103874;1283;100469;-77
2022/01/30 10:54:49;;;;;;;0.80;0.80;;;;;;;4.56;73.97;98123.89;103644;1284;109289;-77
2022/01/30 10:57:17;;;;;;;0.80;0.80;;;;;;;4.56;73.88;98114.76;103510;1283;140592;-75
2022/01/30 10:59:52;;;;;;;0.70;0.70;;;;;;;4.59;73.79;98111.80;103575;1284;95283;-76
2022/01/30 11:02:23;;;;;;;0.90;0.90;;;;;;;4.54;73.86;98102.52;103649;1284;138348;-74
2022/01/30 11:05:01;;;;;;;0.90;0.90;;;;;;;4.58;73.93;98105.52;103984;1284;100714;-79
2022/01/30 11:07:30;;;;;;;0.70;0.70;;;;;;;4.61;74.10;98100.83;103680;1284;108042;-78
2022/01/30 11:10:09;;;;;;;0.80;0.80;;;;;;;4.64;73.93;98099.33;103654;1284;140784;-74
2022/01/30 11:12:46;;;;;;;1.00;1.00;;;;;;;4.65;73.72;98098.90;103720;1284;95235;-75
2022/01/30 11:15:23;;;;;;;1.00;1.00;;;;;;;4.63;73.88;98093.21;103600;1284;139018;-77
2022/01/30 11:17:52;;;;;;;0.80;0.80;;;;;;;4.62;74.11;98104.48;103644;1284;98287;-77
2022/01/30 11:20:20;;;;;;;0.80;0.80;;;;;;;4.61;73.95;98116.46;103597;1283;138881;-76
2022/01/30 11:22:49;;;;;;;0.80;0.80;;;;;;;4.58;74.10;98122.25;103449;1284;95284;-74
2022/01/30 11:25:17;;;;;;;0.80;0.80;;;;;;;4.56;74.41;98121.95;103765;1284;95167;-74
2022/01/30 11:27:47;;;;;;;0.80;0.80;;;;;;;4.55;74.38;98137.80;103614;1282;140255;-81
2022/01/30 11:30:24;;;;;;;0.80;0.80;;;;;;;4.54;74.50;98142.05;103633;1284;100045;-75
2022/01/30 11:32:52;;;;;;;0.80;0.80;;;;;;;4.60;74.30;98144.46;103482;1284;140079;-83
2022/01/30 11:35:20;;;;;;;0.80;0.80;;;;;;;4.63;74.25;98147.14;103585;1284;95684;-73
2022/01/30 11:37:49;;;;;;;0.90;0.90;;;;;;;4.67;73.91;98149.98;103712;1284;138279;-76
2022/01/30 11:40:18;;;;;;;0.90;0.90;;;;;;;4.74;73.80;98148.87;103547;1284;109292;-76
2022/01/30 11:42:49;;;;;;;0.70;0.70;;;;;;;4.79;73.31;98153.04;103955;1284;100022;-73
2022/01/30 11:45:27;;;;;;;0.80;0.80;;;;;;;4.82;72.93;98163.29;103540;1284;139508;-74
2022/01/30 11:48:12;;;;;;;0.80;0.80;;;;;;;4.79;73.07;98167.83;103756;1284;95617;-74
2022/01/30 11:50:41;;;;;;;0.80;0.80;;;;;;;4.80;72.99;98169.02;103597;1284;138775;-81
2022/01/30 11:53:09;;;;;;;0.80;0.80;;;;;;;4.81;72.79;98174.21;103556;1284;110745;-76
2022/01/30 11:55:42;;;;;;;0.80;0.80;;;;;;;4.85;72.85;98172.14;103763;1284;99897;-74
2022/01/30 11:58:31;;;;;;;0.70;0.70;;;;;;;4.87;72.85;98176.66;103618;1284;138724;-81
2022/01/30 12:01:04;;;;;;;0.80;0.80;;;;;;;4.89;72.46;98177.27;103706;1284;95763;-76
2022/01/30 12:03:37;;;;;;;0.80;0.80;;;;;;;4.91;72.73;98182.10;103481;1284;140229;-74
2022/01/30 12:06:20;;;;;;;0.80;0.80;;;;;;;4.95;72.37;98188.82;103760;1284;109341;-76
2022/01/30 12:08:59;;;;;;;0.80;0.80;;;;;;;4.94;72.29;98190.27;103474;1284;139519;-72
2022/01/30 12:14:12;;;;;;;0.90;0.90;;;;;;;4.93;72.42;98195.59;103447;1284;139041;-73
2022/01/30 12:16:47;;;;;;;0.70;0.70;;;;;;;4.90;72.41;98202.37;103531;1284;98717;-74
2022/01/30 12:19:17;;;;;;;1.00;1.00;;;;;;;4.89;72.35;98205.04;103554;1284;108809;-83
2022/01/30 12:21:44;;;;;;;0.80;0.80;;;;;;;4.86;72.72;98220.46;103479;1284;138806;-74
2022/01/30 12:24:24;;;;;;;0.80;0.80;;;;;;;4.83;72.56;98215.84;103576;1284;109304;-77
2022/01/30 12:27:02;;;;;;;0.90;0.90;;;;;;;4.80;72.33;98215.24;103614;1284;141970;-73
2022/01/30 12:29:34;;;;;;;0.80;0.80;;;;;;;4.76;72.74;98222.42;103556;1284;95143;-74
2022/01/30 12:32:20;;;;;;;0.90;0.90;;;;;;;4.72;73.28;98237.16;103471;1284;139697;-73
2022/01/30 12:35:01;;;;;;;0.90;0.90;;;;;;;4.69;73.19;98255.76;103567;1284;98379;-78
2022/01/30 12:37:30;;;;;;;0.80;0.80;;;;;;;4.64;73.26;98261.71;103707;1284;109646;-75
2022/01/30 12:40:02;;;;;;;0.80;0.80;;;;;;;4.67;73.31;98268.11;103487;1284;140641;-75
2022/01/30 12:42:32;;;;;;;1.00;1.00;;;;;;;4.64;73.11;98272.80;103856;1283;95165;-74
2022/01/30 12:45:01;;;;;;;0.90;0.90;;;;;;;4.57;73.33;98274.80;104189;1284;138203;-76
2022/01/30 12:47:29;;;;;;;0.90;0.90;;;;;;;4.59;73.43;98277.88;103732;1284;99905;-74
2022/01/30 12:50:00;;;;;;;0.80;0.80;;;;;;;4.63;73.78;98285.30;103432;1284;138313;-73
2022/01/30 12:54:57;;;;;;;1.00;1.00;;;;;;;4.59;73.67;98297.21;103707;1284;95262;-78
2022/01/30 12:57:26;;;;;;;0.80;0.80;;;;;;;4.55;73.49;98297.23;103594;1284;139813;-77
2022/01/30 12:59:56;;;;;;;0.80;0.80;;;;;;;4.50;73.96;98300.02;103848;1285;100340;-76
2022/01/30 13:02:25;;;;;;;0.80;0.80;;;;;;;4.46;73.72;98301.02;103605;1284;141170;-74
2022/01/30 13:05:07;;;;;;;0.90;0.90;;;;;;;4.49;73.97;98298.98;103686;1284;95762;-73
2022/01/30 13:07:36;;;;;;;0.70;0.70;;;;;;;4.57;73.94;98298.36;103607;1284;95156;-74
2022/01/30 13:10:10;;;;;;;0.80;0.80;;;;;;;4.58;73.78;98312.18;103548;1284;137842;-76